Blue Image — 3EXO5 — position and weather

sailwx.info

Track history (hours):
 
Tides and Currents Weather Stations Pressure Air Temp Water Temp Dewpoint Dewpoint Depression Visibility Wind Speed Wind Dir Waves Ship Positions

Blue Image

Last reported at 2014-Aug-01 15:33 UTC. Time now 2014-Aug-01 16:03 UTC.
Position N 37°18' E 004°12'.

Length 160 m; draft 8.6 m.

Type: Cargo ship. MMSI: 351960000.

Date/timePositionNaut miles runAvg speedWind from/ knotsBaromVisibWave heightAir tempDewpointWater temp
2014-Aug-01 15:33N 37°18' E 004°12'3012.9
2014-Aug-01 13:14N 37°21' E 004°49'912.6
2014-Aug-01 12:33N 37°22' E 005°00'1312.6
2014-Aug-01 11:33N 37°23' E 005°16'1312.9
2014-Aug-01 10:33N 37°24' E 005°32'1312.8
2014-Aug-01 09:33N 37°26' E 005°48'12612.4
2014-Jul-31 23:21N 37°41' E 008°26'2212.1
2014-Jul-31 21:33N 37°43' E 008°54'1111.5
2014-Jul-31 20:33N 37°43' E 009°08'26210.9
2014-Jul-30 20:33N 35°49' E 014°02'4611.1
2014-Jul-30 16:24N 35°29' E 014°53'1012.1
2014-Jul-30 15:33N 35°27' E 015°05'1212.2
2014-Jul-30 14:33N 35°25' E 015°20'16512.5
2014-Jul-30 01:22N 33°12' E 017°18'4112.9
2014-Jul-29 22:11N 32°38' E 017°46'2112.9
2014-Jul-29 20:32N 32°21' E 018°01'1713.1
2014-Jul-29 19:13N 32°07' E 018°13'10012.7
2014-Jul-29 11:23N 30°44' E 019°17'  
2014-Jul-26 21:19N 30°25' E 019°36'0 0.0
2014-Jul-26 15:31N 30°25' E 019°36'  
2014-Jul-22 22:05N 33°46' E 020°04'6613.7
2014-Jul-22 17:13N 34°42' E 020°48'  
Track history (hours):
 
Tides and Currents Weather Stations Pressure Air Temp Water Temp Dewpoint Dewpoint Depression Visibility Wind Speed Wind Dir Waves Ship Positions

Blue Image

Last reported at 2014-Aug-01 15:33 UTC. Time now 2014-Aug-01 16:03 UTC.
Position N 37°18' E 004°12'.

Length 160 m; draft 8.6 m.

Type: Cargo ship. MMSI: 351960000.

Date/timePositionNaut miles runAvg speedWind from/ knotsBaromVisibWave heightAir tempDewpointWater temp
2014-Aug-01 15:33N 37°18' E 004°12'3012.9
2014-Aug-01 13:14N 37°21' E 004°49'912.6
2014-Aug-01 12:33N 37°22' E 005°00'1312.6
2014-Aug-01 11:33N 37°23' E 005°16'1312.9
2014-Aug-01 10:33N 37°24' E 005°32'1312.8
2014-Aug-01 09:33N 37°26' E 005°48'12612.4
2014-Jul-31 23:21N 37°41' E 008°26'2212.1
2014-Jul-31 21:33N 37°43' E 008°54'1111.5
2014-Jul-31 20:33N 37°43' E 009°08'26210.9
2014-Jul-30 20:33N 35°49' E 014°02'4611.1
2014-Jul-30 16:24N 35°29' E 014°53'1012.1
2014-Jul-30 15:33N 35°27' E 015°05'1212.2
2014-Jul-30 14:33N 35°25' E 015°20'16512.5
2014-Jul-30 01:22N 33°12' E 017°18'4112.9
2014-Jul-29 22:11N 32°38' E 017°46'2112.9
2014-Jul-29 20:32N 32°21' E 018°01'1713.1
2014-Jul-29 19:13N 32°07' E 018°13'10012.7
2014-Jul-29 11:23N 30°44' E 019°17'  
2014-Jul-26 21:19N 30°25' E 019°36'0 0.0
2014-Jul-26 15:31N 30°25' E 019°36'  
2014-Jul-22 22:05N 33°46' E 020°04'6613.7
2014-Jul-22 17:13N 34°42' E 020°48'  

Dump ship's entire track history